Terminal Aerodrome Forecast
Issued by NWS Green Bay, WI

Home | Current Version | Previous Version | Graphics & Text | Print | Product List | Glossary On
Versions: 1 2 3 4 5 6 7 8 9 10 11 12 13 14 15 16 17 18 19 20 21 22 23 24 25 26 27 28 29 30 31 32 33 34 35 36
000
FTUS43 KGRB 181700 RRA
TAFGRB
TAF
KGRB 181740Z 1818/1918 01005KT P6SM OVC022
      TEMPO 1820/1822 SCT022
     FM182200 36004KT P6SM SCT025
     FM190200 34004KT P6SM SCT250
     FM191500 30003KT P6SM SKC=

USA.gov is the U.S. government's official web portal to all federal, state and local government web resources and services.